Time;durP1;ratioP1;P1;durP2;ratioP2;P2;SDS_P1;SDS_P2;PMS_P1;PMS_P2;Temp;Humidity;BMP_temperature;BMP_pressure;BME280_temperature;BME280_humidity;BME280_pressure;Samples;Min_cycle;Max_cycle;Signal;HPM_P1;HPM_P2
2022/04/26 03:36:37;;;;;;;12.13;3.85;;;;;;;7.56;100.00;94094.94;5037167;28;20028;-91
2022/04/26 03:39:03;;;;;;;9.43;3.58;;;;;;;7.52;100.00;94101.66;5003804;28;20029;-92
2022/04/26 03:41:30;;;;;;;13.50;4.10;;;;;;;7.24;100.00;94100.22;5003497;28;20037;-93
2022/04/26 03:43:55;;;;;;;10.23;4.00;;;;;;;7.33;100.00;94096.13;5003440;28;20032;-93
2022/04/26 03:46:21;;;;;;;13.45;3.80;;;;;;;7.13;100.00;94100.16;5019600;28;20029;-93
2022/04/26 03:48:47;;;;;;;10.32;3.45;;;;;;;7.20;100.00;94103.34;5019725;28;20025;-93
2022/04/26 03:51:12;;;;;;;16.27;3.65;;;;;;;7.26;100.00;94092.94;5023244;28;20430;-92
2022/04/26 03:53:47;;;;;;;9.70;3.83;;;;;;;7.16;100.00;94099.66;5007188;28;20496;-94
2022/04/26 03:56:14;;;;;;;8.98;3.42;;;;;;;7.16;100.00;94112.69;5008148;28;20405;-92
2022/04/26 03:58:39;;;;;;;10.20;4.47;;;;;;;7.20;100.00;94100.75;5023511;28;20037;-92
2022/04/26 04:01:12;;;;;;;7.05;3.88;;;;;;;7.44;100.00;94102.94;5007010;28;20057;-92
2022/04/26 04:03:41;;;;;;;10.10;3.40;;;;;;;7.30;100.00;94104.44;5023585;28;20033;-93
2022/04/26 04:06:19;;;;;;;;;;;;;;;;;;;;;
2022/04/26 04:08:52;;;;;;;8.95;3.92;;;;;;;7.31;100.00;94113.81;5024729;28;20029;-94
2022/04/26 04:11:20;;;;;;;9.68;3.85;;;;;;;7.12;100.00;94116.84;5007732;28;20045;-92
2022/04/26 04:13:48;;;;;;;8.15;4.28;;;;;;;7.11;100.00;94120.47;5023080;28;20339;-92
2022/04/26 04:16:25;;;;;;;;;;;;;;;;;;;;;
2022/04/26 04:21:38;;;;;;;12.98;3.83;;;;;;;6.82;100.00;94117.44;5039795;28;20096;-93
2022/04/26 04:24:06;;;;;;;8.90;3.95;;;;;;;7.00;100.00;94134.47;5024006;28;20107;-91
2022/04/26 04:26:34;;;;;;;10.82;4.30;;;;;;;7.05;100.00;94119.66;5040397;28;20398;-90
2022/04/26 04:29:07;;;;;;;8.57;3.63;;;;;;;7.14;100.00;94127.78;5040305;28;20029;-92
2022/04/26 04:31:38;;;;;;;8.45;3.70;;;;;;;7.33;100.00;94122.94;5023981;28;20029;-91
2022/04/26 04:34:07;;;;;;;8.25;3.70;;;;;;;7.27;100.00;94120.56;5039425;28;20434;-91
2022/04/26 04:36:49;;;;;;;;;;;;;;;;;;;;;
2022/04/26 04:39:19;;;;;;;11.40;3.42;;;;;;;7.45;100.00;94135.00;5039275;28;20342;-90
2022/04/26 04:41:51;;;;;;;8.13;3.88;;;;;;;7.54;100.00;94136.13;5039974;28;20123;-93
2022/04/26 04:44:29;;;;;;;;;;;;;;;;;;;;;
2022/04/26 04:47:08;;;;;;;;;;;;;;;;;;;;;
2022/04/26 04:49:45;;;;;;;7.53;3.53;;;;;;;7.10;100.00;94141.56;5024529;28;20434;-92
2022/04/26 04:52:23;;;;;;;;;;;;;;;;;;;;;
2022/04/26 04:54:52;;;;;;;8.93;3.38;;;;;;;6.84;100.00;94147.38;5038704;28;20342;-89
2022/04/26 04:57:25;;;;;;;6.07;3.75;;;;;;;7.04;100.00;94138.94;5023340;28;20036;-90
2022/04/26 04:59:53;;;;;;;10.98;3.70;;;;;;;7.26;100.00;94148.47;5031345;28;20115;-89
2022/04/26 05:02:19;;;;;;;15.27;3.35;;;;;;;7.36;100.00;94145.13;5022486;28;20043;-90
2022/04/26 05:04:48;;;;;;;11.00;3.45;;;;;;;7.67;100.00;94154.91;5022264;28;20108;-91
2022/04/26 05:07:16;;;;;;;8.35;3.47;;;;;;;7.92;100.00;94151.66;5022627;28;20037;-90
2022/04/26 05:09:42;;;;;;;7.22;3.10;;;;;;;7.97;100.00;94158.72;5022937;28;20480;-90
2022/04/26 05:12:10;;;;;;;11.18;2.92;;;;;;;8.01;100.00;94152.72;5021807;28;20033;-90
2022/04/26 05:14:36;;;;;;;7.05;2.75;;;;;;;8.03;100.00;94152.47;5037230;28;20343;-87
2022/04/26 05:17:04;;;;;;;9.35;2.92;;;;;;;8.17;100.00;94156.16;5005373;28;20033;-88
2022/04/26 05:19:30;;;;;;;8.68;3.13;;;;;;;8.43;100.00;94158.06;5006422;28;20040;-87
2022/04/26 05:21:57;;;;;;;10.20;2.85;;;;;;;8.25;100.00;94160.09;5005755;28;20033;-90
2022/04/26 05:27:09;;;;;;;8.85;2.90;;;;;;;8.21;100.00;94166.88;5038402;28;20056;-88
2022/04/26 05:29:36;;;;;;;7.10;3.40;;;;;;;8.18;100.00;94164.78;5021620;28;20026;-88
2022/04/26 05:32:02;;;;;;;5.63;2.90;;;;;;;8.32;100.00;94165.09;5005326;28;20025;-88
2022/04/26 05:34:28;;;;;;;9.18;2.97;;;;;;;8.54;100.00;94166.75;5005615;28;20025;-88
2022/04/26 05:36:56;;;;;;;7.18;2.70;;;;;;;8.69;100.00;94164.16;5005421;28;20026;-88
2022/04/26 05:39:21;;;;;;;7.88;2.90;;;;;;;8.65;100.00;94167.53;5022143;28;20025;-89
2022/04/26 05:41:52;;;;;;;9.02;2.78;;;;;;;8.89;100.00;94163.38;4991880;28;20038;-89
2022/04/26 05:44:19;;;;;;;8.80;2.75;;;;;;;9.13;100.00;94167.28;5001982;28;20120;-88
2022/04/26 05:46:56;;;;;;;5.40;2.65;;;;;;;9.23;100.00;94161.25;5007852;28;20092;-88
2022/04/26 05:49:22;;;;;;;10.02;3.05;;;;;;;9.50;100.00;94166.19;5021472;28;20025;-88
2022/04/26 05:51:50;;;;;;;6.88;2.47;;;;;;;9.58;100.00;94177.94;5021310;28;20028;-88
2022/04/26 05:54:16;;;;;;;8.25;2.78;;;;;;;9.77;100.00;94170.31;5021848;28;20052;-88
2022/04/26 05:56:44;;;;;;;4.40;2.42;;;;;;;9.91;100.00;94178.38;5004869;28;20092;-88
2022/04/26 05:59:09;;;;;;;7.75;2.80;;;;;;;10.00;100.00;94189.06;5004683;28;20033;-87
2022/04/26 06:01:37;;;;;;;10.55;3.33;;;;;;;9.85;100.00;94176.81;5021137;28;20029;-88
2022/04/26 06:04:02;;;;;;;8.10;2.78;;;;;;;10.02;100.00;94192.22;5005320;28;20415;-89
2022/04/26 06:06:38;;;;;;;;;;;;;;;;;;;;;
2022/04/26 06:09:04;;;;;;;6.35;2.40;;;;;;;10.39;100.00;94177.88;5022208;28;20025;-88
2022/04/26 06:11:30;;;;;;;8.25;2.60;;;;;;;10.53;100.00;94175.50;5021385;28;20515;-89
2022/04/26 06:14:02;;;;;;;6.55;2.53;;;;;;;10.58;100.00;94179.94;5036445;28;20033;-88
2022/04/26 06:16:33;;;;;;;6.40;2.10;;;;;;;10.69;100.00;94176.19;5022544;28;20480;-90
2022/04/26 06:18:58;;;;;;;7.53;1.85;;;;;;;10.85;100.00;94176.88;5021187;28;20272;-89
2022/04/26 06:21:24;;;;;;;9.65;2.45;;;;;;;10.93;100.00;94182.59;5021266;28;20427;-89
2022/04/26 06:23:52;;;;;;;7.30;2.78;;;;;;;11.08;100.00;94179.84;5004816;28;20026;-90
2022/04/26 06:26:20;;;;;;;5.03;2.10;;;;;;;11.24;100.00;94177.09;5021378;28;20026;-88
2022/04/26 06:28:46;;;;;;;7.90;2.45;;;;;;;11.31;100.00;94178.34;5037593;28;20029;-88
2022/04/26 06:31:11;;;;;;;6.75;2.70;;;;;;;11.11;100.00;94173.25;5020945;28;20078;-88
2022/04/26 06:33:37;;;;;;;6.85;2.80;;;;;;;11.30;100.00;94179.41;5004174;28;20362;-90
2022/04/26 06:36:10;;;;;;;7.65;2.88;;;;;;;11.29;100.00;94175.22;5020357;28;20473;-89
2022/04/26 06:38:36;;;;;;;8.23;2.50;;;;;;;11.45;100.00;94182.94;5022388;28;20029;-89
2022/04/26 06:41:02;;;;;;;7.70;2.53;;;;;;;11.46;100.00;94179.25;5004602;28;20038;-89
2022/04/26 06:43:39;;;;;;;;;;;;;;;;;;;;;
2022/04/26 06:46:05;;;;;;;5.03;2.25;;;;;;;11.51;100.00;94186.31;5022266;28;20033;-88
2022/04/26 06:48:31;;;;;;;7.18;1.80;;;;;;;11.54;100.00;94177.88;5020722;28;20120;-88
2022/04/26 06:51:06;;;;;;;;;;;;;;;;;;;;;
2022/04/26 06:53:32;;;;;;;4.90;2.13;;;;;;;11.79;100.00;94174.19;5021508;28;20029;-89
2022/04/26 06:55:59;;;;;;;3.75;2.28;;;;;;;11.76;100.00;94169.50;5020486;28;20399;-89
2022/04/26 06:58:27;;;;;;;6.63;2.58;;;;;;;11.78;100.00;94172.63;5020584;28;20033;-89
2022/04/26 07:00:55;;;;;;;7.20;1.90;;;;;;;11.97;100.00;94177.94;5036570;28;20056;-89
2022/04/26 07:03:20;;;;;;;5.95;1.65;;;;;;;11.93;100.00;94176.16;5020273;28;20418;-89
2022/04/26 07:05:46;;;;;;;1.90;1.40;;;;;;;12.14;100.00;94181.97;5020285;28;20079;-88
2022/04/26 07:08:22;;;;;;;;;;;;;;;;;;;;;
2022/04/26 07:10:47;;;;;;;8.05;2.10;;;;;;;12.22;100.00;94173.50;5021256;28;20013;-89
2022/04/26 07:13:18;;;;;;;4.40;2.20;;;;;;;12.26;100.00;94177.13;5020183;28;20125;-89
2022/04/26 07:15:46;;;;;;;5.03;2.10;;;;;;;12.26;100.00;94177.13;5020639;28;20076;-88
2022/04/26 07:18:15;;;;;;;3.95;1.90;;;;;;;12.38;100.00;94178.56;5019529;28;20116;-91
2022/04/26 07:20:44;;;;;;;4.18;1.80;;;;;;;12.42;100.00;94184.78;5019982;28;20063;-89
2022/04/26 07:23:10;;;;;;;5.78;2.00;;;;;;;12.66;100.00;94189.97;5020403;28;20033;-89
2022/04/26 07:25:35;;;;;;;7.05;2.22;;;;;;;12.89;100.00;94186.78;5019971;28;20086;-89
2022/04/26 07:28:04;;;;;;;4.30;2.00;;;;;;;12.91;100.00;94193.31;5019448;28;20033;-90
2022/04/26 07:30:38;;;;;;;5.93;1.90;;;;;;;13.01;100.00;94193.19;5020263;28;20033;-88
2022/04/26 07:36:00;;;;;;;;;;;;;;;;;;;;;
2022/04/26 07:38:25;;;;;;;6.28;1.85;;;;;;;12.84;100.00;94185.78;5020966;28;20025;-90
2022/04/26 07:40:51;;;;;;;4.45;1.45;;;;;;;12.96;100.00;94192.47;5019364;28;20116;-89
2022/04/26 07:43:16;;;;;;;6.82;1.95;;;;;;;12.84;100.00;94182.41;5019905;28;20021;-89
2022/04/26 07:45:43;;;;;;;7.78;1.85;;;;;;;12.61;94.67;94179.56;5019228;28;20060;-89
2022/04/26 07:48:09;;;;;;;4.40;2.00;;;;;;;12.52;95.95;94179.41;5019734;28;20044;-88
2022/04/26 07:50:38;;;;;;;5.25;2.15;;;;;;;12.46;90.81;94183.16;5019269;28;20120;-88
2022/04/26 07:53:04;;;;;;;4.68;1.98;;;;;;;12.61;90.99;94173.50;5019838;28;20033;-88
2022/04/26 07:55:30;;;;;;;3.85;1.70;;;;;;;12.49;84.28;94187.06;5019566;28;20215;-90
2022/04/26 07:57:58;;;;;;;10.93;2.03;;;;;;;12.64;86.19;94193.97;5019503;28;20025;-90
2022/04/26 08:00:33;;;;;;;5.15;2.00;;;;;;;12.79;86.29;94193.75;5019349;28;20128;-89
2022/04/26 08:03:08;;;;;;;10.52;2.38;;;;;;;12.86;83.46;94185.53;5020847;28;20338;-90
2022/04/26 08:05:36;;;;;;;5.88;2.10;;;;;;;12.97;85.50;94186.91;5020485;28;20033;-89
2022/04/26 08:08:04;;;;;;;2.95;1.58;;;;;;;13.31;92.67;94189.56;5019632;28;20461;-88
2022/04/26 08:10:40;;;;;;;;;;;;;;;;;;;;;
2022/04/26 08:13:06;;;;;;;5.57;1.77;;;;;;;13.20;85.78;94186.31;5021022;28;20032;-88
2022/04/26 08:15:34;;;;;;;4.03;1.70;;;;;;;12.97;82.01;94196.66;5019501;28;20132;-88
2022/04/26 08:17:59;;;;;;;4.25;1.88;;;;;;;13.25;82.96;94186.25;5019769;28;20087;-88
2022/04/26 08:20:26;;;;;;;4.63;1.80;;;;;;;13.48;90.77;94189.81;5002981;28;20037;-89
2022/04/26 08:23:02;;;;;;;;;;;;;;;;;;;;;
2022/04/26 08:28:11;;;;;;;7.90;1.95;;;;;;;13.65;85.57;94199.00;5021826;28;20044;-88
2022/04/26 08:30:37;;;;;;;3.92;1.80;;;;;;;13.85;83.29;94203.13;5019403;28;20029;-89
2022/04/26 08:33:48;;;;;;;5.40;2.08;;;;;;;13.63;81.07;94207.22;5019191;28;20470;-88
2022/04/26 08:36:19;;;;;;;3.17;2.10;;;;;;;13.61;74.74;94201.44;5020891;28;20036;-90
2022/04/26 08:38:47;;;;;;;6.40;1.70;;;;;;;13.73;75.64;94205.47;5022906;28;20052;-89
2022/04/26 08:41:15;;;;;;;5.75;1.85;;;;;;;13.59;76.12;94208.84;5023242;28;20033;-89
2022/04/26 08:43:40;;;;;;;5.10;2.28;;;;;;;13.64;81.30;94214.03;5022896;28;20029;-88
2022/04/26 08:46:06;;;;;;;7.97;2.22;;;;;;;13.33;80.92;94222.41;5022576;28;20036;-88
2022/04/26 08:51:15;;;;;;;6.15;1.98;;;;;;;13.73;89.21;94218.63;5024967;28;20036;-90
2022/04/26 08:53:44;;;;;;;10.10;2.40;;;;;;;13.81;81.65;94213.47;5022817;28;20029;-89
2022/04/26 08:56:11;;;;;;;7.82;2.08;;;;;;;13.67;85.95;94217.94;5022908;28;20069;-88
2022/04/26 08:58:39;;;;;;;5.85;2.17;;;;;;;14.18;87.37;94207.53;5022529;28;20037;-88
2022/04/26 09:01:08;;;;;;;6.03;2.30;;;;;;;13.93;82.26;94210.38;5022681;28;20041;-89
2022/04/26 09:03:36;;;;;;;5.30;1.80;;;;;;;14.13;79.08;94221.59;5022047;28;20112;-88
2022/04/26 09:06:21;;;;;;;3.92;1.85;;;;;;;14.29;80.75;94219.44;5022619;28;20039;-88
2022/04/26 09:08:48;;;;;;;6.50;2.30;;;;;;;14.53;81.14;94224.50;5023573;28;20029;-88
2022/04/26 09:11:37;;;;;;;;;;;;;;;;;;;;;
2022/04/26 09:14:16;;;;;;;4.07;2.15;;;;;;;13.94;85.28;94219.84;5023275;28;20027;-89
2022/04/26 09:16:49;;;;;;;4.85;2.03;;;;;;;14.19;76.13;94211.72;5023467;28;20378;-90
2022/04/26 09:19:15;;;;;;;5.10;2.13;;;;;;;14.08;79.73;94225.09;5037436;28;20071;-90
2022/04/26 09:22:03;;;;;;;;;;;;;;;;;;;;;
2022/04/26 09:24:57;;;;;;;5.78;2.65;;;;;;;13.64;79.47;94221.94;5038187;28;20025;-88
2022/04/26 09:27:33;;;;;;;5.75;2.35;;;;;;;14.05;83.49;94211.72;5021914;28;20124;-89
2022/04/26 09:30:09;;;;;;;4.70;2.00;;;;;;;14.11;79.81;94213.19;5023029;28;20039;-91
2022/04/26 09:33:00;;;;;;;;;;;;;;;;;;;;;
2022/04/26 09:35:32;;;;;;;5.53;2.17;;;;;;;13.65;78.67;94214.81;5022754;28;20027;-89
2022/04/26 09:37:59;;;;;;;5.85;1.80;;;;;;;13.78;79.40;94232.47;5022828;28;20059;-89
2022/04/26 09:40:35;;;;;;;4.28;2.40;;;;;;;14.25;87.45;94227.16;5021840;28;20124;-89
2022/04/26 09:43:08;;;;;;;5.40;2.08;;;;;;;14.44;78.15;94233.41;5022083;28;20032;-89
2022/04/26 09:45:34;;;;;;;8.65;2.28;;;;;;;14.38;77.79;94195.81;5022235;28;20030;-90
2022/04/26 09:47:59;;;;;;;6.68;2.13;;;;;;;14.20;80.74;94224.63;5020320;28;20041;-88
2022/04/26 09:50:27;;;;;;;11.15;2.38;;;;;;;14.11;80.02;94221.09;5020996;28;20029;-89
2022/04/26 09:52:55;;;;;;;6.10;1.98;;;;;;;14.40;82.49;94218.16;5005456;28;20342;-90
2022/04/26 09:55:21;;;;;;;5.57;2.03;;;;;;;14.31;77.18;94214.66;5021622;28;20083;-89
2022/04/26 09:57:46;;;;;;;5.18;1.95;;;;;;;13.76;76.11;94223.31;5021162;28;20092;-88
2022/04/26 10:00:13;;;;;;;3.65;2.20;;;;;;;13.73;78.77;94218.63;5004741;28;20059;-88
2022/04/26 10:02:45;;;;;;;6.30;2.13;;;;;;;14.15;76.92;94216.81;5020973;28;20033;-90
2022/04/26 10:05:20;;;;;;;5.90;1.93;;;;;;;14.47;82.86;94217.75;5020876;28;20025;-89
2022/04/26 10:07:48;;;;;;;3.92;1.80;;;;;;;14.18;71.00;94218.06;5022401;28;20029;-90
2022/04/26 10:10:23;;;;;;;6.47;1.90;;;;;;;14.40;72.62;94215.50;5021234;28;20434;-90
2022/04/26 10:15:39;;;;;;;3.75;1.83;;;;;;;13.85;74.56;94213.66;4983176;28;20132;-89
2022/04/26 10:18:33;;;;;;;7.07;1.92;;;;;;;13.99;73.73;94225.00;5021626;28;20065;-89
2022/04/26 10:21:00;;;;;;;5.63;2.38;;;;;;;14.16;76.35;94221.00;5021006;28;20081;-88
2022/04/26 10:23:35;;;;;;;5.88;1.73;;;;;;;14.27;81.90;94201.28;5020915;28;20025;-89
2022/04/26 10:29:04;;;;;;;3.40;1.60;;;;;;;13.85;81.41;94232.91;5038458;28;20509;-88
2022/04/26 10:31:57;;;;;;;7.93;2.67;;;;;;;13.70;78.60;94233.13;5021428;28;20049;-88
2022/04/26 10:34:31;;;;;;;4.53;1.85;;;;;;;13.60;85.50;94236.72;5020314;28;20124;-88
2022/04/26 10:37:06;;;;;;;9.55;2.08;;;;;;;13.85;85.46;94238.16;5021377;28;20418;-88
2022/04/26 10:39:42;;;;;;;6.55;2.25;;;;;;;13.80;84.75;94216.41;5036741;28;20033;-88
2022/04/26 10:42:14;;;;;;;3.63;2.05;;;;;;;13.64;83.06;94224.56;5037094;28;20037;-88
2022/04/26 10:44:46;;;;;;;4.80;1.85;;;;;;;14.17;84.34;94224.44;5020381;28;20132;-90
2022/04/26 10:47:24;;;;;;;3.88;2.03;;;;;;;14.50;77.24;94230.38;5004414;28;20378;-89
2022/04/26 10:49:53;;;;;;;9.27;1.98;;;;;;;14.69;79.46;94221.53;5020153;28;20037;-91
2022/04/26 10:52:19;;;;;;;7.07;2.15;;;;;;;14.35;83.79;94225.41;5003985;28;20446;-89
2022/04/26 10:57:47;;;;;;;3.53;2.15;;;;;;;14.79;80.11;94228.47;5004162;28;20021;-88
2022/04/26 11:00:16;;;;;;;5.95;2.20;;;;;;;15.31;81.26;94224.69;5019806;28;20021;-88
2022/04/26 11:02:44;;;;;;;17.63;2.25;;;;;;;15.18;75.51;94234.22;5003720;28;20050;-89
2022/04/26 11:05:10;;;;;;;3.22;1.80;;;;;;;15.04;78.60;94219.19;5036192;28;20031;-88
2022/04/26 11:07:38;;;;;;;4.03;2.05;;;;;;;15.13;81.48;94230.63;5019859;28;20095;-89
2022/04/26 11:10:12;;;;;;;8.48;1.95;;;;;;;14.83;79.49;94224.16;5003727;28;20026;-89
2022/04/26 11:12:40;;;;;;;5.22;1.90;;;;;;;15.35;75.81;94246.75;5003495;28;20065;-89
2022/04/26 11:15:20;;;;;;;5.40;1.75;;;;;;;15.13;77.35;94240.38;5020116;28;20053;-89
2022/04/26 11:17:46;;;;;;;3.97;2.03;;;;;;;15.02;74.99;94233.78;5004181;28;20033;-89
2022/04/26 11:20:14;;;;;;;6.88;2.10;;;;;;;15.40;74.86;94249.25;5019906;28;20029;-89
2022/04/26 11:22:47;;;;;;;5.32;1.85;;;;;;;15.08;76.94;94246.56;5020455;28;20059;-89
2022/04/26 11:28:10;;;;;;;4.22;2.03;;;;;;;15.25;74.59;94239.88;5022404;28;20037;-90
2022/04/26 11:30:48;;;;;;;7.78;2.20;;;;;;;15.43;82.02;94240.78;5020048;28;20017;-89
2022/04/26 11:33:18;;;;;;;7.53;2.20;;;;;;;15.31;78.86;94241.28;5019529;28;20025;-87
2022/04/26 11:35:44;;;;;;;4.88;2.10;;;;;;;15.05;75.06;94204.94;5020109;28;20025;-89
2022/04/26 11:38:19;;;;;;;5.78;2.00;;;;;;;14.72;74.24;94241.28;5019773;28;20032;-89
2022/04/26 11:40:58;;;;;;;10.82;2.22;;;;;;;15.16;80.36;94247.72;5020599;28;20107;-90
2022/04/26 11:43:31;;;;;;;3.95;1.95;;;;;;;15.19;75.51;94238.41;5019598;28;20459;-90
2022/04/26 11:45:57;;;;;;;6.25;1.95;;;;;;;15.23;78.09;94232.22;5035850;28;20033;-90
2022/04/26 11:48:28;;;;;;;9.55;2.63;;;;;;;15.32;77.43;94224.38;5003618;28;20029;-89
2022/04/26 11:50:58;;;;;;;8.70;1.98;;;;;;;14.93;71.91;94233.72;5020280;28;20565;-89
2022/04/26 11:53:31;;;;;;;6.00;1.80;;;;;;;15.36;77.55;94235.91;5019531;28;20320;-89
2022/04/26 11:56:00;;;;;;;10.70;2.03;;;;;;;14.90;73.91;94216.63;5019451;28;20434;-90
2022/04/26 11:58:40;;;;;;;6.50;2.53;;;;;;;15.15;77.64;94232.97;5003612;28;20429;-89
2022/04/26 12:01:11;;;;;;;4.75;1.77;;;;;;;15.22;72.59;94233.31;5036963;28;20029;-90
2022/04/26 12:03:44;;;;;;;5.68;1.95;;;;;;;14.61;72.71;94222.22;5019279;28;20026;-89
2022/04/26 12:06:11;;;;;;;9.18;2.45;;;;;;;15.18;74.55;94228.94;5004557;28;20111;-90
2022/04/26 12:08:42;;;;;;;5.15;2.15;;;;;;;15.16;71.91;94225.81;5003101;28;20030;-89
2022/04/26 12:11:20;;;;;;;6.82;1.95;;;;;;;15.22;71.92;94229.91;5005031;28;20026;-89
2022/04/26 12:14:01;;;;;;;5.72;2.25;;;;;;;15.32;75.49;94220.97;5028737;28;20125;-89
2022/04/26 12:16:28;;;;;;;8.27;2.35;;;;;;;15.30;71.76;94223.91;5020171;28;20029;-89
2022/04/26 12:19:03;;;;;;;10.93;2.65;;;;;;;15.23;72.83;94207.72;5004308;28;20030;-92
2022/04/26 12:21:46;;;;;;;5.80;2.33;;;;;;;15.37;74.15;94210.28;5020129;28;20215;-91
2022/04/26 12:24:27;;;;;;;4.65;2.10;;;;;;;14.88;70.04;94218.78;5019904;28;20034;-91
2022/04/26 12:27:07;;;;;;;4.88;1.77;;;;;;;15.21;73.24;94221.19;5019695;28;20112;-90
2022/04/26 12:29:35;;;;;;;7.68;2.38;;;;;;;15.24;68.96;94204.00;5004065;28;20030;-92
2022/04/26 12:32:06;;;;;;;10.15;2.33;;;;;;;15.46;69.50;94220.88;5019989;28;20057;-92
2022/04/26 12:35:14;;;;;;;;;;;;;;;;;;;;;
2022/04/26 12:38:16;;;;;;;5.20;1.77;;;;;;;15.54;71.66;94218.28;5010161;28;20308;-92
2022/04/26 12:41:27;;;;;;;11.20;1.92;;;;;;;15.12;65.88;94252.81;5004184;28;20060;-93
2022/04/26 12:43:54;;;;;;;;;;;;;;;;;;;;;
2022/04/26 12:50:37;;;;;;;;;;;;;;;;;;;;;
2022/04/26 12:52:13;;;;;;;;;;;;;;;15.68;64.75;94197.09;5005781;28;20083;-92
2022/04/26 12:54:41;;;;;;;5.45;2.22;;;;;;;15.51;65.05;94191.75;5003223;28;19913;-92
2022/04/26 12:57:17;;;;;;;;;;;;;;;;;;;;;
2022/04/26 13:00:15;;;;;;;;;;;;;;;;;;;;;
2022/04/26 13:02:46;;;;;;;6.05;2.10;;;;;;;15.59;64.75;94201.56;5019386;28;20030;-93
2022/04/26 13:05:25;;;;;;;;;;;;;;;;;;;;;
2022/04/26 13:08:08;;;;;;;;;;;;;;;;;;;;;
2022/04/26 13:11:00;;;;;;;4.55;2.25;;;;;;;15.81;62.67;94187.53;5019576;28;20022;-92
2022/04/26 13:16:50;;;;;;;;;;;;;;;;;;;;;
2022/04/26 13:19:10;;;;;;;7.57;2.22;;;;;;;16.32;60.23;94173.25;5013987;28;20029;-91
2022/04/26 13:25:07;;;;;;;9.73;2.30;;;;;;;16.86;65.46;94193.38;5019922;28;20033;-93
2022/04/26 13:28:06;;;;;;;;;;;;;;;;;;;;;
2022/04/26 13:30:39;;;;;;;3.15;1.75;;;;;;;16.44;61.76;94189.28;5019849;28;20032;-92
2022/04/26 13:33:08;;;;;;;6.07;2.35;;;;;;;16.66;58.52;94185.75;5018908;28;20036;-93
2022/04/26 13:35:37;;;;;;;6.25;2.25;;;;;;;16.44;57.97;94176.06;5035215;28;20073;-93
2022/04/26 13:38:21;;;;;;;4.82;2.15;;;;;;;16.32;58.52;94168.75;5020764;28;20080;-92
2022/04/26 13:41:02;;;;;;;4.10;2.10;;;;;;;16.33;58.83;94178.25;5035951;28;20025;-94
2022/04/26 13:43:41;;;;;;;;;;;;;;;;;;;;;
2022/04/26 13:46:11;;;;;;;6.75;1.98;;;;;;;16.14;55.35;94173.22;5034995;28;20028;-93
2022/04/26 13:48:59;;;;;;;;;;;;;;;;;;;;;
2022/04/26 13:51:35;;;;;;;5.45;1.80;;;;;;;16.98;55.90;94184.81;5034355;28;20022;-93
2022/04/26 13:57:14;;;;;;;5.82;1.98;;;;;;;17.52;58.03;94171.22;5006352;28;20026;-93
2022/04/26 14:00:05;;;;;;;6.40;1.77;;;;;;;16.78;53.11;94163.19;5019567;28;20050;-94
2022/04/26 14:03:21;;;;;;;;;;;;;;;;;;;;;
2022/04/26 14:05:58;;;;;;;;;;;;;;;;;;;;;
2022/04/26 14:08:58;;;;;;;5.00;1.75;;;;;;;17.97;53.78;94161.25;5033617;28;20469;-93
2022/04/26 14:11:46;;;;;;;7.22;1.60;;;;;;;17.30;52.94;94165.03;5020175;28;20025;-93
2022/04/26 14:24:53;;;;;;;;;;;;;;;;;;;;;
2022/04/26 14:28:13;;;;;;;;;;;;;;;;;;;;;
2022/04/26 14:30:41;;;;;;;6.00;1.75;;;;;;;18.63;50.25;94159.94;5002475;28;20048;-93
2022/04/26 14:33:24;;;;;;;7.28;1.67;;;;;;;18.11;51.30;94150.44;5002571;28;20030;-94
2022/04/26 14:36:34;;;;;;;;;;;;;;;;;;;;;
2022/04/26 14:39:32;;;;;;;;;;;;;;;;;;;;;
2022/04/26 14:49:16;;;;;;;;;;;;;;;;;;;;;
2022/04/26 14:52:27;;;;;;;3.05;1.23;;;;;;;18.81;48.63;94143.91;5016586;28;20046;-93
2022/04/26 14:55:03;;;;;;;4.68;1.60;;;;;;;19.29;47.58;94150.53;5011771;28;20026;-93
2022/04/26 14:57:55;;;;;;;;;;;;;;;;;;;;;
2022/04/26 15:00:40;;;;;;;;;;;;;;;;;;;;;
2022/04/26 15:03:16;;;;;;;;;;;;;;;;;;;;;
2022/04/26 15:06:10;;;;;;;3.30;1.10;;;;;;;18.31;47.25;94154.22;5017494;28;20029;-93
2022/04/26 15:11:39;;;;;;;;;;;;;;;;;;;;;
2022/04/26 15:17:20;;;;;;;2.97;1.40;;;;;;;19.34;46.69;94142.34;5017182;28;20088;-94
2022/04/26 15:20:00;;;;;;;;;;;;;;;;;;;;;
2022/04/26 15:22:26;;;;;;;5.90;1.30;;;;;;;20.10;44.04;94144.03;5017634;28;20339;-93
2022/04/26 15:25:17;;;;;;;4.38;1.20;;;;;;;19.69;45.54;94137.78;5022545;28;20107;-93
2022/04/26 15:28:12;;;;;;;;;;;;;;;;;;;;;
2022/04/26 15:30:44;;;;;;;4.55;1.42;;;;;;;18.70;45.58;94128.38;5037309;28;20021;-94
2022/04/26 15:33:29;;;;;;;7.07;1.73;;;;;;;19.03;46.74;94134.84;5020284;28;20025;-92
2022/04/26 15:36:13;;;;;;;;;;;;;;;;;;;;;
2022/04/26 15:39:14;;;;;;;;;;;;;;;;;;;;;
2022/04/26 15:41:59;;;;;;;;;;;;;;;;;;;;;
2022/04/26 15:44:45;;;;;;;3.80;1.27;;;;;;;18.53;46.25;94133.81;5037348;28;20021;-92
2022/04/26 15:47:33;;;;;;;5.65;1.60;;;;;;;18.67;46.08;94144.94;5023275;28;20056;-93
2022/04/26 15:50:13;;;;;;;3.28;0.80;;;;;;;18.83;45.21;94137.16;5023980;28;20029;-93
2022/04/26 15:52:54;;;;;;;;;;;;;;;;;;;;;
2022/04/26 15:56:34;;;;;;;;;;;;;;;;;;;;;
2022/04/26 15:59:30;;;;;;;;;;;;;;;;;;;;;
2022/04/26 16:02:06;;;;;;;2.28;1.20;;;;;;;19.07;45.66;94114.50;5040858;28;20029;-92
2022/04/26 16:04:57;;;;;;;;;;;;;;;;;;;;;
2022/04/26 16:07:32;;;;;;;4.38;1.25;;;;;;;18.49;46.08;94123.84;5040801;28;20029;-93
2022/04/26 16:21:56;;;;;;;2.28;1.25;;;;;;;18.76;46.46;94121.75;5040560;28;20045;-93
2022/04/26 16:24:21;;;;;;;4.95;1.25;;;;;;;18.40;46.58;94109.09;5041370;28;20079;-94
2022/04/26 16:26:48;;;;;;;3.78;1.27;;;;;;;17.58;49.52;94108.28;5024252;28;20025;-93
2022/04/26 16:29:17;;;;;;;4.80;1.85;;;;;;;18.18;48.47;94110.97;5039726;28;20048;-93
2022/04/26 16:31:53;;;;;;;4.80;1.55;;;;;;;18.40;50.00;94117.84;5023446;28;20025;-92
2022/04/26 16:34:19;;;;;;;8.73;1.45;;;;;;;17.80;49.30;94112.53;5023887;28;20354;-94
2022/04/26 16:36:45;;;;;;;4.82;1.30;;;;;;;17.36;49.80;94107.41;5022868;28;20079;-93
2022/04/26 16:39:16;;;;;;;2.75;1.35;;;;;;;17.46;51.17;94130.09;5039281;28;20029;-92
2022/04/26 16:41:41;;;;;;;3.83;1.40;;;;;;;17.75;50.69;94128.59;5040222;28;20029;-93
2022/04/26 16:44:07;;;;;;;7.28;1.88;;;;;;;17.62;50.61;94120.53;5039411;28;20029;-93
2022/04/26 16:46:43;;;;;;;;;;;;;;;;;;;;;
2022/04/26 16:49:14;;;;;;;5.78;1.20;;;;;;;19.32;49.00;94127.84;5024045;28;20025;-93
2022/04/26 16:51:42;;;;;;;5.25;1.35;;;;;;;17.86;50.02;94136.97;5023256;28;20013;-92
2022/04/26 16:54:12;;;;;;;3.80;1.60;;;;;;;18.35;47.98;94110.06;5022868;28;20025;-94
2022/04/26 16:56:42;;;;;;;3.95;1.70;;;;;;;17.95;49.46;94127.09;5022357;28;20104;-93
2022/04/26 16:59:09;;;;;;;3.00;1.30;;;;;;;18.18;49.74;94132.16;5023965;28;20029;-94
2022/04/26 17:01:38;;;;;;;6.63;1.65;;;;;;;17.41;51.87;94130.28;5022435;28;20453;-93
2022/04/26 17:04:13;;;;;;;;;;;;;;;;;;;;;
2022/04/26 17:06:49;;;;;;;4.38;1.65;;;;;;;15.55;57.19;94127.44;5039974;28;20029;-93
2022/04/26 17:12:40;;;;;;;5.10;1.50;;;;;;;14.43;61.25;94132.44;5039915;28;20079;-92
2022/04/26 17:15:09;;;;;;;4.18;1.35;;;;;;;14.31;63.01;94142.72;5022231;28;20025;-94
2022/04/26 17:17:46;;;;;;;4.97;1.75;;;;;;;14.50;63.13;94132.81;5039632;28;20029;-93
2022/04/26 17:20:13;;;;;;;4.10;1.67;;;;;;;14.30;64.08;94139.31;5038918;28;20033;-93
2022/04/26 17:22:54;;;;;;;;;;;;;;;;;;;;;
2022/04/26 17:25:20;;;;;;;3.33;1.48;;;;;;;14.18;67.76;94142.44;5039225;28;20025;-93
2022/04/26 17:27:56;;;;;;;4.88;1.60;;;;;;;14.06;68.33;94144.78;5038603;28;20071;-93
2022/04/26 17:30:38;;;;;;;3.35;1.70;;;;;;;13.78;75.53;94142.19;5038889;28;20033;-92
2022/04/26 17:33:04;;;;;;;3.67;1.55;;;;;;;13.90;73.38;94155.63;5038875;28;20029;-93
2022/04/26 17:35:32;;;;;;;4.72;1.40;;;;;;;13.74;74.00;94138.56;5039091;28;20051;-93
2022/04/26 17:37:58;;;;;;;3.15;1.70;;;;;;;13.77;72.17;94146.66;5023577;28;20053;-92
2022/04/26 17:40:33;;;;;;;;;;;;;;;;;;;;;
2022/04/26 17:43:00;;;;;;;3.53;1.52;;;;;;;13.49;75.00;94146.66;5038726;28;20033;-93
2022/04/26 17:45:34;;;;;;;3.70;1.73;;;;;;;13.49;75.64;94157.16;5022141;28;20034;-92
2022/04/26 17:48:00;;;;;;;8.68;1.83;;;;;;;13.42;75.65;94151.50;5038919;28;20076;-92
2022/04/26 17:50:27;;;;;;;3.58;1.90;;;;;;;13.33;76.85;94156.63;5023009;28;20037;-93
2022/04/26 17:56:34;;;;;;;2.97;1.80;;;;;;;13.18;79.98;94155.03;5040322;28;20032;-93
2022/04/26 17:59:10;;;;;;;3.67;1.83;;;;;;;13.15;78.00;94160.88;5039084;28;20030;-93
2022/04/26 18:01:36;;;;;;;5.72;1.48;;;;;;;13.03;80.43;94158.69;5039095;28;20033;-92
2022/04/26 18:04:05;;;;;;;5.72;1.77;;;;;;;13.05;81.27;94161.81;5056081;28;20032;-92